sensor_id;sensor_type;location;lat;lon;timestamp;P1;durP1;ratioP1;P2;durP2;ratioP2
56333;SDS011;42240;53.626;55.886;2023-03-14T00:00:52;0.35;;;0.35;;
56333;SDS011;42240;53.626;55.886;2023-03-14T00:02:25;0.40;;;0.40;;
56333;SDS011;42240;53.626;55.886;2023-03-14T00:03:59;0.40;;;0.40;;
56333;SDS011;42240;53.626;55.886;2023-03-14T00:05:33;0.30;;;0.30;;
56333;SDS011;42240;53.626;55.886;2023-03-14T00:07:06;0.40;;;0.40;;
56333;SDS011;42240;53.626;55.886;2023-03-14T00:08:40;0.40;;;0.40;;
56333;SDS011;42240;53.626;55.886;2023-03-14T00:10:14;0.40;;;0.40;;
56333;SDS011;42240;53.626;55.886;2023-03-14T00:11:47;0.40;;;0.40;;
56333;SDS011;42240;53.626;55.886;2023-03-14T00:13:21;0.30;;;0.30;;
56333;SDS011;42240;53.626;55.886;2023-03-14T00:14:53;0.40;;;0.40;;
56333;SDS011;42240;53.626;55.886;2023-03-14T00:16:26;0.40;;;0.40;;
56333;SDS011;42240;53.626;55.886;2023-03-14T00:18:00;0.40;;;0.40;;
56333;SDS011;42240;53.626;55.886;2023-03-14T00:19:33;0.40;;;0.40;;
56333;SDS011;42240;53.626;55.886;2023-03-14T00:21:06;0.32;;;0.32;;
56333;SDS011;42240;53.626;55.886;2023-03-14T00:22:41;0.40;;;0.40;;
56333;SDS011;42240;53.626;55.886;2023-03-14T00:24:14;0.30;;;0.30;;
56333;SDS011;42240;53.626;55.886;2023-03-14T00:25:48;0.30;;;0.30;;
56333;SDS011;42240;53.626;55.886;2023-03-14T00:27:20;0.40;;;0.40;;
56333;SDS011;42240;53.626;55.886;2023-03-14T00:28:53;0.38;;;0.38;;
56333;SDS011;42240;53.626;55.886;2023-03-14T00:30:27;0.30;;;0.30;;
56333;SDS011;42240;53.626;55.886;2023-03-14T00:32:00;0.40;;;0.40;;
56333;SDS011;42240;53.626;55.886;2023-03-14T00:33:33;0.40;;;0.40;;
56333;SDS011;42240;53.626;55.886;2023-03-14T00:35:08;0.40;;;0.40;;
56333;SDS011;42240;53.626;55.886;2023-03-14T00:36:41;0.47;;;0.47;;
56333;SDS011;42240;53.626;55.886;2023-03-14T00:38:14;0.30;;;0.30;;
56333;SDS011;42240;53.626;55.886;2023-03-14T00:39:47;0.40;;;0.40;;
56333;SDS011;42240;53.626;55.886;2023-03-14T00:41:21;0.30;;;0.30;;
56333;SDS011;42240;53.626;55.886;2023-03-14T00:42:55;0.40;;;0.40;;
56333;SDS011;42240;53.626;55.886;2023-03-14T00:44:31;0.32;;;0.32;;
56333;SDS011;42240;53.626;55.886;2023-03-14T00:46:04;0.30;;;0.30;;
56333;SDS011;42240;53.626;55.886;2023-03-14T00:47:38;0.32;;;0.32;;
56333;SDS011;42240;53.626;55.886;2023-03-14T00:49:12;0.40;;;0.40;;
56333;SDS011;42240;53.626;55.886;2023-03-14T00:50:46;0.40;;;0.40;;
56333;SDS011;42240;53.626;55.886;2023-03-14T00:52:19;0.40;;;0.40;;
56333;SDS011;42240;53.626;55.886;2023-03-14T00:53:52;0.30;;;0.30;;
56333;SDS011;42240;53.626;55.886;2023-03-14T00:55:25;0.40;;;0.40;;
56333;SDS011;42240;53.626;55.886;2023-03-14T00:56:58;0.38;;;0.38;;
56333;SDS011;42240;53.626;55.886;2023-03-14T00:58:31;0.30;;;0.30;;
56333;SDS011;42240;53.626;55.886;2023-03-14T01:00:05;0.40;;;0.40;;
56333;SDS011;42240;53.626;55.886;2023-03-14T01:01:40;0.40;;;0.40;;
56333;SDS011;42240;53.626;55.886;2023-03-14T01:03:14;0.40;;;0.40;;
56333;SDS011;42240;53.626;55.886;2023-03-14T01:04:48;0.40;;;0.40;;
56333;SDS011;42240;53.626;55.886;2023-03-14T01:06:23;0.40;;;0.40;;
56333;SDS011;42240;53.626;55.886;2023-03-14T01:07:57;0.32;;;0.32;;
56333;SDS011;42240;53.626;55.886;2023-03-14T01:09:31;0.40;;;0.40;;
56333;SDS011;42240;53.626;55.886;2023-03-14T01:11:06;0.30;;;0.30;;
56333;SDS011;42240;53.626;55.886;2023-03-14T01:12:43;0.40;;;0.40;;
56333;SDS011;42240;53.626;55.886;2023-03-14T01:14:16;0.40;;;0.40;;
56333;SDS011;42240;53.626;55.886;2023-03-14T01:15:49;0.35;;;0.35;;
56333;SDS011;42240;53.626;55.886;2023-03-14T01:17:22;0.40;;;0.40;;
56333;SDS011;42240;53.626;55.886;2023-03-14T01:18:55;0.32;;;0.32;;
56333;SDS011;42240;53.626;55.886;2023-03-14T01:20:28;0.40;;;0.40;;
56333;SDS011;42240;53.626;55.886;2023-03-14T01:22:02;0.40;;;0.40;;
56333;SDS011;42240;53.626;55.886;2023-03-14T01:23:35;0.30;;;0.30;;
56333;SDS011;42240;53.626;55.886;2023-03-14T01:25:09;0.40;;;0.40;;
56333;SDS011;42240;53.626;55.886;2023-03-14T01:26:44;0.40;;;0.40;;
56333;SDS011;42240;53.626;55.886;2023-03-14T01:28:17;0.40;;;0.40;;
56333;SDS011;42240;53.626;55.886;2023-03-14T01:29:50;0.40;;;0.40;;
56333;SDS011;42240;53.626;55.886;2023-03-14T01:31:23;0.47;;;0.47;;
56333;SDS011;42240;53.626;55.886;2023-03-14T01:32:57;0.40;;;0.40;;
56333;SDS011;42240;53.626;55.886;2023-03-14T01:34:31;0.40;;;0.40;;
56333;SDS011;42240;53.626;55.886;2023-03-14T01:36:04;0.40;;;0.40;;
56333;SDS011;42240;53.626;55.886;2023-03-14T01:37:38;0.40;;;0.40;;
56333;SDS011;42240;53.626;55.886;2023-03-14T01:39:17;0.40;;;0.40;;
56333;SDS011;42240;53.626;55.886;2023-03-14T01:40:50;0.40;;;0.40;;
56333;SDS011;42240;53.626;55.886;2023-03-14T01:42:23;0.40;;;0.40;;
56333;SDS011;42240;53.626;55.886;2023-03-14T01:43:56;0.40;;;0.40;;
56333;SDS011;42240;53.626;55.886;2023-03-14T01:47:45;0.40;;;0.40;;
56333;SDS011;42240;53.626;55.886;2023-03-14T01:51:11;0.40;;;0.40;;
56333;SDS011;42240;53.626;55.886;2023-03-14T01:53:15;0.40;;;0.40;;
56333;SDS011;42240;53.626;55.886;2023-03-14T01:54:52;0.40;;;0.40;;
56333;SDS011;42240;53.626;55.886;2023-03-14T01:56:43;0.40;;;0.40;;
56333;SDS011;42240;53.626;55.886;2023-03-14T01:58:20;0.40;;;0.40;;
56333;SDS011;42240;53.626;55.886;2023-03-14T01:59:54;0.40;;;0.40;;
56333;SDS011;42240;53.626;55.886;2023-03-14T02:01:30;0.40;;;0.40;;
56333;SDS011;42240;53.626;55.886;2023-03-14T02:03:09;0.40;;;0.40;;
56333;SDS011;42240;53.626;55.886;2023-03-14T02:04:46;0.40;;;0.40;;
56333;SDS011;42240;53.626;55.886;2023-03-14T02:06:24;0.40;;;0.40;;
56333;SDS011;42240;53.626;55.886;2023-03-14T02:08:05;0.40;;;0.40;;
56333;SDS011;42240;53.626;55.886;2023-03-14T02:09:48;0.30;;;0.30;;
56333;SDS011;42240;53.626;55.886;2023-03-14T02:11:28;0.40;;;0.40;;
56333;SDS011;42240;53.626;55.886;2023-03-14T02:13:12;0.40;;;0.40;;
56333;SDS011;42240;53.626;55.886;2023-03-14T02:16:48;0.40;;;0.40;;
56333;SDS011;42240;53.626;55.886;2023-03-14T02:18:44;0.40;;;0.40;;
56333;SDS011;42240;53.626;55.886;2023-03-14T02:22:55;0.40;;;0.40;;
56333;SDS011;42240;53.626;55.886;2023-03-14T02:24:46;0.40;;;0.40;;
56333;SDS011;42240;53.626;55.886;2023-03-14T02:26:39;0.40;;;0.40;;
56333;SDS011;42240;53.626;55.886;2023-03-14T02:28:18;0.40;;;0.40;;
56333;SDS011;42240;53.626;55.886;2023-03-14T02:30:12;0.47;;;0.47;;
56333;SDS011;42240;53.626;55.886;2023-03-14T02:31:50;0.50;;;0.50;;
56333;SDS011;42240;53.626;55.886;2023-03-14T02:33:24;0.40;;;0.40;;
56333;SDS011;42240;53.626;55.886;2023-03-14T02:34:58;0.40;;;0.40;;
56333;SDS011;42240;53.626;55.886;2023-03-14T02:36:36;0.40;;;0.40;;
56333;SDS011;42240;53.626;55.886;2023-03-14T02:40:10;0.40;;;0.40;;
56333;SDS011;42240;53.626;55.886;2023-03-14T02:41:44;0.40;;;0.40;;
56333;SDS011;42240;53.626;55.886;2023-03-14T02:43:18;0.43;;;0.43;;
56333;SDS011;42240;53.626;55.886;2023-03-14T02:45:25;0.40;;;0.40;;
56333;SDS011;42240;53.626;55.886;2023-03-14T02:46:50;0.50;;;0.50;;
56333;SDS011;42240;53.626;55.886;2023-03-14T02:48:25;0.40;;;0.40;;
56333;SDS011;42240;53.626;55.886;2023-03-14T02:50:18;0.40;;;0.40;;
56333;SDS011;42240;53.626;55.886;2023-03-14T02:51:54;0.40;;;0.40;;
56333;SDS011;42240;53.626;55.886;2023-03-14T02:53:31;0.40;;;0.40;;
56333;SDS011;42240;53.626;55.886;2023-03-14T02:55:11;0.40;;;0.40;;
56333;SDS011;42240;53.626;55.886;2023-03-14T02:56:47;0.50;;;0.50;;
56333;SDS011;42240;53.626;55.886;2023-03-14T02:58:21;0.50;;;0.50;;
56333;SDS011;42240;53.626;55.886;2023-03-14T02:59:59;0.40;;;0.40;;
56333;SDS011;42240;53.626;55.886;2023-03-14T03:01:38;0.50;;;0.50;;
56333;SDS011;42240;53.626;55.886;2023-03-14T03:03:12;0.50;;;0.50;;
56333;SDS011;42240;53.626;55.886;2023-03-14T03:04:45;0.50;;;0.50;;
56333;SDS011;42240;53.626;55.886;2023-03-14T03:06:21;0.40;;;0.40;;
56333;SDS011;42240;53.626;55.886;2023-03-14T03:07:54;0.40;;;0.40;;
56333;SDS011;42240;53.626;55.886;2023-03-14T03:09:29;0.40;;;0.40;;
56333;SDS011;42240;53.626;55.886;2023-03-14T03:11:03;0.40;;;0.40;;
56333;SDS011;42240;53.626;55.886;2023-03-14T03:12:37;0.40;;;0.40;;
56333;SDS011;42240;53.626;55.886;2023-03-14T03:14:10;0.50;;;0.50;;
56333;SDS011;42240;53.626;55.886;2023-03-14T03:15:44;0.40;;;0.40;;
56333;SDS011;42240;53.626;55.886;2023-03-14T03:17:17;0.50;;;0.50;;
56333;SDS011;42240;53.626;55.886;2023-03-14T03:18:50;0.47;;;0.47;;
56333;SDS011;42240;53.626;55.886;2023-03-14T03:20:25;0.50;;;0.50;;
56333;SDS011;42240;53.626;55.886;2023-03-14T03:21:58;0.50;;;0.50;;
56333;SDS011;42240;53.626;55.886;2023-03-14T03:23:31;0.50;;;0.50;;
56333;SDS011;42240;53.626;55.886;2023-03-14T03:25:04;0.40;;;0.40;;
56333;SDS011;42240;53.626;55.886;2023-03-14T03:26:39;0.40;;;0.40;;
56333;SDS011;42240;53.626;55.886;2023-03-14T03:28:14;0.50;;;0.50;;
56333;SDS011;42240;53.626;55.886;2023-03-14T03:29:47;0.40;;;0.40;;
56333;SDS011;42240;53.626;55.886;2023-03-14T03:31:21;0.40;;;0.40;;
56333;SDS011;42240;53.626;55.886;2023-03-14T03:32:54;0.47;;;0.47;;
56333;SDS011;42240;53.626;55.886;2023-03-14T03:34:28;0.35;;;0.35;;
56333;SDS011;42240;53.626;55.886;2023-03-14T03:36:02;0.40;;;0.40;;
56333;SDS011;42240;53.626;55.886;2023-03-14T03:37:39;0.43;;;0.43;;
56333;SDS011;42240;53.626;55.886;2023-03-14T03:39:13;0.40;;;0.40;;
56333;SDS011;42240;53.626;55.886;2023-03-14T03:40:45;0.40;;;0.40;;
56333;SDS011;42240;53.626;55.886;2023-03-14T03:42:19;0.40;;;0.40;;
56333;SDS011;42240;53.626;55.886;2023-03-14T03:43:52;0.40;;;0.40;;
56333;SDS011;42240;53.626;55.886;2023-03-14T03:45:26;0.40;;;0.40;;
56333;SDS011;42240;53.626;55.886;2023-03-14T03:47:01;0.50;;;0.50;;
56333;SDS011;42240;53.626;55.886;2023-03-14T03:48:34;0.50;;;0.50;;
56333;SDS011;42240;53.626;55.886;2023-03-14T03:50:10;0.43;;;0.43;;
56333;SDS011;42240;53.626;55.886;2023-03-14T03:51:43;0.50;;;0.50;;
56333;SDS011;42240;53.626;55.886;2023-03-14T03:53:16;0.45;;;0.45;;
56333;SDS011;42240;53.626;55.886;2023-03-14T03:55:06;0.40;;;0.40;;
56333;SDS011;42240;53.626;55.886;2023-03-14T03:56:40;0.50;;;0.50;;
56333;SDS011;42240;53.626;55.886;2023-03-14T03:58:13;0.50;;;0.50;;
56333;SDS011;42240;53.626;55.886;2023-03-14T03:59:46;0.40;;;0.40;;
56333;SDS011;42240;53.626;55.886;2023-03-14T04:01:19;0.43;;;0.43;;
56333;SDS011;42240;53.626;55.886;2023-03-14T04:02:56;0.40;;;0.40;;
56333;SDS011;42240;53.626;55.886;2023-03-14T04:04:29;0.40;;;0.40;;
56333;SDS011;42240;53.626;55.886;2023-03-14T04:06:07;0.40;;;0.40;;
56333;SDS011;42240;53.626;55.886;2023-03-14T04:07:43;0.40;;;0.40;;
56333;SDS011;42240;53.626;55.886;2023-03-14T04:09:21;0.40;;;0.40;;
56333;SDS011;42240;53.626;55.886;2023-03-14T04:11:10;0.40;;;0.40;;
56333;SDS011;42240;53.626;55.886;2023-03-14T04:13:05;0.40;;;0.40;;
56333;SDS011;42240;53.626;55.886;2023-03-14T04:14:39;0.50;;;0.50;;
56333;SDS011;42240;53.626;55.886;2023-03-14T04:16:23;0.40;;;0.40;;
56333;SDS011;42240;53.626;55.886;2023-03-14T04:18:03;0.32;;;0.32;;
56333;SDS011;42240;53.626;55.886;2023-03-14T04:19:36;0.40;;;0.40;;
56333;SDS011;42240;53.626;55.886;2023-03-14T04:21:09;0.40;;;0.40;;
56333;SDS011;42240;53.626;55.886;2023-03-14T04:22:52;0.40;;;0.40;;
56333;SDS011;42240;53.626;55.886;2023-03-14T04:24:26;0.40;;;0.40;;
56333;SDS011;42240;53.626;55.886;2023-03-14T04:26:01;0.40;;;0.40;;
56333;SDS011;42240;53.626;55.886;2023-03-14T04:27:36;0.30;;;0.30;;
56333;SDS011;42240;53.626;55.886;2023-03-14T04:29:15;0.40;;;0.40;;
56333;SDS011;42240;53.626;55.886;2023-03-14T04:30:50;0.30;;;0.30;;
56333;SDS011;42240;53.626;55.886;2023-03-14T04:32:27;0.30;;;0.30;;
56333;SDS011;42240;53.626;55.886;2023-03-14T04:34:01;0.30;;;0.30;;
56333;SDS011;42240;53.626;55.886;2023-03-14T04:35:40;0.30;;;0.30;;
56333;SDS011;42240;53.626;55.886;2023-03-14T04:37:16;0.30;;;0.30;;
56333;SDS011;42240;53.626;55.886;2023-03-14T04:38:49;0.30;;;0.30;;
56333;SDS011;42240;53.626;55.886;2023-03-14T04:40:25;0.30;;;0.30;;
56333;SDS011;42240;53.626;55.886;2023-03-14T04:42:03;0.20;;;0.20;;
56333;SDS011;42240;53.626;55.886;2023-03-14T04:43:37;0.30;;;0.30;;
56333;SDS011;42240;53.626;55.886;2023-03-14T04:45:12;0.20;;;0.20;;
56333;SDS011;42240;53.626;55.886;2023-03-14T04:46:47;0.20;;;0.20;;
56333;SDS011;42240;53.626;55.886;2023-03-14T04:48:20;0.20;;;0.20;;
56333;SDS011;42240;53.626;55.886;2023-03-14T04:49:54;0.20;;;0.20;;
56333;SDS011;42240;53.626;55.886;2023-03-14T04:51:29;0.20;;;0.20;;
56333;SDS011;42240;53.626;55.886;2023-03-14T04:54:35;0.20;;;0.20;;
56333;SDS011;42240;53.626;55.886;2023-03-14T04:56:09;0.20;;;0.20;;
56333;SDS011;42240;53.626;55.886;2023-03-14T04:57:44;0.20;;;0.20;;
56333;SDS011;42240;53.626;55.886;2023-03-14T05:00:49;0.20;;;0.20;;
56333;SDS011;42240;53.626;55.886;2023-03-14T05:02:44;0.20;;;0.20;;
56333;SDS011;42240;53.626;55.886;2023-03-14T05:06:40;0.10;;;0.10;;
56333;SDS011;42240;53.626;55.886;2023-03-14T05:08:27;0.10;;;0.10;;
56333;SDS011;42240;53.626;55.886;2023-03-14T05:10:20;0.10;;;0.10;;
56333;SDS011;42240;53.626;55.886;2023-03-14T05:12:20;0.10;;;0.10;;
56333;SDS011;42240;53.626;55.886;2023-03-14T05:14:10;0.15;;;0.15;;
56333;SDS011;42240;53.626;55.886;2023-03-14T05:16:03;0.10;;;0.10;;
56333;SDS011;42240;53.626;55.886;2023-03-14T05:17:56;0.10;;;0.10;;
56333;SDS011;42240;53.626;55.886;2023-03-14T05:19:52;0.10;;;0.10;;
56333;SDS011;42240;53.626;55.886;2023-03-14T05:21:54;0.10;;;0.10;;
56333;SDS011;42240;53.626;55.886;2023-03-14T05:23:45;0.10;;;0.10;;
56333;SDS011;42240;53.626;55.886;2023-03-14T05:25:39;0.10;;;0.10;;
56333;SDS011;42240;53.626;55.886;2023-03-14T05:27:35;0.10;;;0.10;;
56333;SDS011;42240;53.626;55.886;2023-03-14T05:29:28;0.20;;;0.20;;
56333;SDS011;42240;53.626;55.886;2023-03-14T05:31:23;0.03;;;0.03;;
56333;SDS011;42240;53.626;55.886;2023-03-14T05:33:23;0.10;;;0.10;;
56333;SDS011;42240;53.626;55.886;2023-03-14T05:35:22;0.10;;;0.10;;
56333;SDS011;42240;53.626;55.886;2023-03-14T05:37:18;0.00;;;0.00;;
56333;SDS011;42240;53.626;55.886;2023-03-14T05:41:02;0.10;;;0.10;;
56333;SDS011;42240;53.626;55.886;2023-03-14T05:42:58;0.10;;;0.10;;
56333;SDS011;42240;53.626;55.886;2023-03-14T05:44:50;0.10;;;0.10;;
56333;SDS011;42240;53.626;55.886;2023-03-14T05:46:43;0.10;;;0.10;;
56333;SDS011;42240;53.626;55.886;2023-03-14T05:48:27;0.00;;;0.00;;
56333;SDS011;42240;53.626;55.886;2023-03-14T05:50:21;0.10;;;0.10;;
56333;SDS011;42240;53.626;55.886;2023-03-14T05:52:12;0.10;;;0.10;;
56333;SDS011;42240;53.626;55.886;2023-03-14T05:54:04;0.10;;;0.10;;
56333;SDS011;42240;53.626;55.886;2023-03-14T05:55:56;0.00;;;0.00;;
56333;SDS011;42240;53.626;55.886;2023-03-14T05:57:58;0.10;;;0.10;;
56333;SDS011;42240;53.626;55.886;2023-03-14T05:59:51;0.00;;;0.00;;
56333;SDS011;42240;53.626;55.886;2023-03-14T06:01:53;0.10;;;0.10;;
56333;SDS011;42240;53.626;55.886;2023-03-14T06:03:29;0.00;;;0.00;;
56333;SDS011;42240;53.626;55.886;2023-03-14T06:05:02;0.10;;;0.10;;
56333;SDS011;42240;53.626;55.886;2023-03-14T06:06:35;0.00;;;0.00;;
56333;SDS011;42240;53.626;55.886;2023-03-14T06:08:08;0.10;;;0.10;;
56333;SDS011;42240;53.626;55.886;2023-03-14T06:09:41;0.10;;;0.10;;
56333;SDS011;42240;53.626;55.886;2023-03-14T06:11:14;0.10;;;0.10;;
56333;SDS011;42240;53.626;55.886;2023-03-14T06:14:20;0.10;;;0.10;;
56333;SDS011;42240;53.626;55.886;2023-03-14T06:15:54;0.10;;;0.10;;
56333;SDS011;42240;53.626;55.886;2023-03-14T06:17:27;0.10;;;0.10;;
56333;SDS011;42240;53.626;55.886;2023-03-14T06:19:07;0.10;;;0.10;;
56333;SDS011;42240;53.626;55.886;2023-03-14T06:20:41;0.10;;;0.10;;
56333;SDS011;42240;53.626;55.886;2023-03-14T06:22:24;0.03;;;0.03;;
56333;SDS011;42240;53.626;55.886;2023-03-14T06:23:58;0.10;;;0.10;;
56333;SDS011;42240;53.626;55.886;2023-03-14T06:25:34;0.10;;;0.10;;
56333;SDS011;42240;53.626;55.886;2023-03-14T06:27:08;0.10;;;0.10;;
56333;SDS011;42240;53.626;55.886;2023-03-14T06:28:41;0.10;;;0.10;;
56333;SDS011;42240;53.626;55.886;2023-03-14T06:30:14;0.10;;;0.10;;
56333;SDS011;42240;53.626;55.886;2023-03-14T06:31:48;0.10;;;0.10;;
56333;SDS011;42240;53.626;55.886;2023-03-14T06:33:23;0.10;;;0.10;;
56333;SDS011;42240;53.626;55.886;2023-03-14T06:34:57;0.10;;;0.10;;
56333;SDS011;42240;53.626;55.886;2023-03-14T06:36:37;0.10;;;0.10;;
56333;SDS011;42240;53.626;55.886;2023-03-14T06:38:10;0.10;;;0.10;;
56333;SDS011;42240;53.626;55.886;2023-03-14T06:39:43;0.10;;;0.10;;
56333;SDS011;42240;53.626;55.886;2023-03-14T06:41:26;0.10;;;0.10;;
56333;SDS011;42240;53.626;55.886;2023-03-14T06:43:00;0.10;;;0.10;;
56333;SDS011;42240;53.626;55.886;2023-03-14T06:44:35;0.10;;;0.10;;
56333;SDS011;42240;53.626;55.886;2023-03-14T06:46:09;0.10;;;0.10;;
56333;SDS011;42240;53.626;55.886;2023-03-14T06:47:44;0.10;;;0.10;;
56333;SDS011;42240;53.626;55.886;2023-03-14T06:49:18;0.10;;;0.10;;
56333;SDS011;42240;53.626;55.886;2023-03-14T06:50:53;0.10;;;0.10;;
56333;SDS011;42240;53.626;55.886;2023-03-14T06:52:27;0.10;;;0.10;;
56333;SDS011;42240;53.626;55.886;2023-03-14T06:54:01;0.10;;;0.10;;
56333;SDS011;42240;53.626;55.886;2023-03-14T06:55:34;0.10;;;0.10;;
56333;SDS011;42240;53.626;55.886;2023-03-14T06:57:08;0.10;;;0.10;;
56333;SDS011;42240;53.626;55.886;2023-03-14T07:00:15;0.20;;;0.20;;
56333;SDS011;42240;53.626;55.886;2023-03-14T07:01:49;0.10;;;0.10;;
56333;SDS011;42240;53.626;55.886;2023-03-14T07:03:23;0.20;;;0.20;;
56333;SDS011;42240;53.626;55.886;2023-03-14T07:04:59;0.20;;;0.20;;
56333;SDS011;42240;53.626;55.886;2023-03-14T07:06:33;0.20;;;0.20;;
56333;SDS011;42240;53.626;55.886;2023-03-14T07:08:06;0.20;;;0.20;;
56333;SDS011;42240;53.626;55.886;2023-03-14T07:09:40;0.20;;;0.20;;
56333;SDS011;42240;53.626;55.886;2023-03-14T07:11:13;0.20;;;0.20;;
56333;SDS011;42240;53.626;55.886;2023-03-14T07:12:46;0.20;;;0.20;;
56333;SDS011;42240;53.626;55.886;2023-03-14T07:14:20;0.20;;;0.20;;
56333;SDS011;42240;53.626;55.886;2023-03-14T07:15:54;0.17;;;0.17;;
56333;SDS011;42240;53.626;55.886;2023-03-14T07:17:28;0.20;;;0.20;;
56333;SDS011;42240;53.626;55.886;2023-03-14T07:19:02;0.20;;;0.20;;
56333;SDS011;42240;53.626;55.886;2023-03-14T07:20:36;0.20;;;0.20;;
56333;SDS011;42240;53.626;55.886;2023-03-14T07:22:11;0.17;;;0.17;;
56333;SDS011;42240;53.626;55.886;2023-03-14T07:25:18;0.20;;;0.20;;
56333;SDS011;42240;53.626;55.886;2023-03-14T07:26:51;0.20;;;0.20;;
56333;SDS011;42240;53.626;55.886;2023-03-14T07:28:25;0.20;;;0.20;;
56333;SDS011;42240;53.626;55.886;2023-03-14T07:30:09;0.20;;;0.20;;
56333;SDS011;42240;53.626;55.886;2023-03-14T07:31:43;0.20;;;0.20;;
56333;SDS011;42240;53.626;55.886;2023-03-14T07:33:21;0.15;;;0.15;;
56333;SDS011;42240;53.626;55.886;2023-03-14T07:34:55;0.20;;;0.20;;
56333;SDS011;42240;53.626;55.886;2023-03-14T07:36:29;0.20;;;0.20;;
56333;SDS011;42240;53.626;55.886;2023-03-14T07:39:40;0.20;;;0.20;;
56333;SDS011;42240;53.626;55.886;2023-03-14T07:41:21;0.20;;;0.20;;
56333;SDS011;42240;53.626;55.886;2023-03-14T07:43:13;0.22;;;0.22;;
56333;SDS011;42240;53.626;55.886;2023-03-14T07:44:51;0.30;;;0.30;;
56333;SDS011;42240;53.626;55.886;2023-03-14T07:46:24;0.20;;;0.20;;
56333;SDS011;42240;53.626;55.886;2023-03-14T07:47:57;0.20;;;0.20;;
56333;SDS011;42240;53.626;55.886;2023-03-14T07:49:30;0.20;;;0.20;;
56333;SDS011;42240;53.626;55.886;2023-03-14T07:51:04;0.20;;;0.20;;
56333;SDS011;42240;53.626;55.886;2023-03-14T07:52:37;0.20;;;0.20;;
56333;SDS011;42240;53.626;55.886;2023-03-14T07:54:10;0.30;;;0.30;;
56333;SDS011;42240;53.626;55.886;2023-03-14T07:55:44;0.20;;;0.20;;
56333;SDS011;42240;53.626;55.886;2023-03-14T07:57:20;0.20;;;0.20;;
56333;SDS011;42240;53.626;55.886;2023-03-14T07:58:53;0.20;;;0.20;;
56333;SDS011;42240;53.626;55.886;2023-03-14T08:01:59;0.20;;;0.20;;
56333;SDS011;42240;53.626;55.886;2023-03-14T08:03:32;0.20;;;0.20;;
56333;SDS011;42240;53.626;55.886;2023-03-14T08:05:06;0.20;;;0.20;;
56333;SDS011;42240;53.626;55.886;2023-03-14T08:06:40;0.20;;;0.20;;
56333;SDS011;42240;53.626;55.886;2023-03-14T08:08:13;0.20;;;0.20;;
56333;SDS011;42240;53.626;55.886;2023-03-14T08:09:46;0.28;;;0.28;;
56333;SDS011;42240;53.626;55.886;2023-03-14T08:11:19;0.20;;;0.20;;
56333;SDS011;42240;53.626;55.886;2023-03-14T08:12:53;0.22;;;0.22;;
56333;SDS011;42240;53.626;55.886;2023-03-14T08:14:28;0.30;;;0.30;;
56333;SDS011;42240;53.626;55.886;2023-03-14T08:16:03;0.20;;;0.20;;
56333;SDS011;42240;53.626;55.886;2023-03-14T08:17:36;0.20;;;0.20;;
56333;SDS011;42240;53.626;55.886;2023-03-14T08:20:42;0.25;;;0.25;;
56333;SDS011;42240;53.626;55.886;2023-03-14T08:22:15;0.28;;;0.28;;
56333;SDS011;42240;53.626;55.886;2023-03-14T08:23:51;0.30;;;0.30;;
56333;SDS011;42240;53.626;55.886;2023-03-14T08:25:24;0.20;;;0.20;;
56333;SDS011;42240;53.626;55.886;2023-03-14T08:26:58;0.20;;;0.20;;
56333;SDS011;42240;53.626;55.886;2023-03-14T08:28:31;0.20;;;0.20;;
56333;SDS011;42240;53.626;55.886;2023-03-14T08:30:06;0.20;;;0.20;;
56333;SDS011;42240;53.626;55.886;2023-03-14T08:31:40;0.28;;;0.28;;
56333;SDS011;42240;53.626;55.886;2023-03-14T08:34:46;0.20;;;0.20;;
56333;SDS011;42240;53.626;55.886;2023-03-14T08:36:19;0.20;;;0.20;;
56333;SDS011;42240;53.626;55.886;2023-03-14T08:37:55;0.20;;;0.20;;
56333;SDS011;42240;53.626;55.886;2023-03-14T08:39:28;0.20;;;0.20;;
56333;SDS011;42240;53.626;55.886;2023-03-14T08:41:01;0.20;;;0.20;;
56333;SDS011;42240;53.626;55.886;2023-03-14T08:42:37;0.20;;;0.20;;
56333;SDS011;42240;53.626;55.886;2023-03-14T08:44:10;0.30;;;0.30;;
56333;SDS011;42240;53.626;55.886;2023-03-14T08:45:44;0.20;;;0.20;;
56333;SDS011;42240;53.626;55.886;2023-03-14T08:48:49;0.30;;;0.30;;
56333;SDS011;42240;53.626;55.886;2023-03-14T08:51:56;0.20;;;0.20;;
56333;SDS011;42240;53.626;55.886;2023-03-14T08:53:29;0.20;;;0.20;;
56333;SDS011;42240;53.626;55.886;2023-03-14T08:55:03;0.20;;;0.20;;
56333;SDS011;42240;53.626;55.886;2023-03-14T08:56:37;0.30;;;0.30;;
56333;SDS011;42240;53.626;55.886;2023-03-14T08:58:12;0.30;;;0.30;;
56333;SDS011;42240;53.626;55.886;2023-03-14T08:59:45;0.30;;;0.30;;
56333;SDS011;42240;53.626;55.886;2023-03-14T09:01:18;0.20;;;0.20;;
56333;SDS011;42240;53.626;55.886;2023-03-14T09:02:53;0.20;;;0.20;;
56333;SDS011;42240;53.626;55.886;2023-03-14T09:04:26;0.22;;;0.22;;
56333;SDS011;42240;53.626;55.886;2023-03-14T09:06:05;0.20;;;0.20;;
56333;SDS011;42240;53.626;55.886;2023-03-14T09:07:40;0.30;;;0.30;;
56333;SDS011;42240;53.626;55.886;2023-03-14T09:09:14;0.30;;;0.30;;
56333;SDS011;42240;53.626;55.886;2023-03-14T09:10:47;0.20;;;0.20;;
56333;SDS011;42240;53.626;55.886;2023-03-14T09:12:20;0.30;;;0.30;;
56333;SDS011;42240;53.626;55.886;2023-03-14T09:13:53;0.30;;;0.30;;
56333;SDS011;42240;53.626;55.886;2023-03-14T09:15:26;0.20;;;0.20;;
56333;SDS011;42240;53.626;55.886;2023-03-14T09:18:32;0.20;;;0.20;;
56333;SDS011;42240;53.626;55.886;2023-03-14T09:20:05;0.20;;;0.20;;
56333;SDS011;42240;53.626;55.886;2023-03-14T09:21:39;0.30;;;0.30;;
56333;SDS011;42240;53.626;55.886;2023-03-14T09:24:45;0.25;;;0.25;;
56333;SDS011;42240;53.626;55.886;2023-03-14T09:26:19;0.30;;;0.30;;
56333;SDS011;42240;53.626;55.886;2023-03-14T09:27:52;0.30;;;0.30;;
56333;SDS011;42240;53.626;55.886;2023-03-14T09:29:25;0.20;;;0.20;;
56333;SDS011;42240;53.626;55.886;2023-03-14T09:30:58;0.28;;;0.28;;
56333;SDS011;42240;53.626;55.886;2023-03-14T09:32:37;0.30;;;0.30;;
56333;SDS011;42240;53.626;55.886;2023-03-14T09:34:10;0.30;;;0.30;;
56333;SDS011;42240;53.626;55.886;2023-03-14T09:35:44;0.30;;;0.30;;
56333;SDS011;42240;53.626;55.886;2023-03-14T09:37:17;0.20;;;0.20;;
56333;SDS011;42240;53.626;55.886;2023-03-14T09:38:52;0.25;;;0.25;;
56333;SDS011;42240;53.626;55.886;2023-03-14T09:42:03;0.30;;;0.30;;
56333;SDS011;42240;53.626;55.886;2023-03-14T09:43:39;0.20;;;0.20;;
56333;SDS011;42240;53.626;55.886;2023-03-14T09:45:19;0.30;;;0.30;;
56333;SDS011;42240;53.626;55.886;2023-03-14T09:47:03;0.20;;;0.20;;
56333;SDS011;42240;53.626;55.886;2023-03-14T09:48:38;0.20;;;0.20;;
56333;SDS011;42240;53.626;55.886;2023-03-14T09:50:13;0.28;;;0.28;;
56333;SDS011;42240;53.626;55.886;2023-03-14T09:51:49;0.30;;;0.30;;
56333;SDS011;42240;53.626;55.886;2023-03-14T09:53:27;0.30;;;0.30;;
56333;SDS011;42240;53.626;55.886;2023-03-14T09:55:13;0.30;;;0.30;;
56333;SDS011;42240;53.626;55.886;2023-03-14T09:56:49;0.20;;;0.20;;
56333;SDS011;42240;53.626;55.886;2023-03-14T09:58:23;0.20;;;0.20;;
56333;SDS011;42240;53.626;55.886;2023-03-14T09:59:58;0.20;;;0.20;;
56333;SDS011;42240;53.626;55.886;2023-03-14T10:01:44;0.20;;;0.20;;
56333;SDS011;42240;53.626;55.886;2023-03-14T10:03:25;0.28;;;0.28;;
56333;SDS011;42240;53.626;55.886;2023-03-14T10:04:58;0.30;;;0.30;;
56333;SDS011;42240;53.626;55.886;2023-03-14T10:06:38;0.20;;;0.20;;
56333;SDS011;42240;53.626;55.886;2023-03-14T10:08:12;0.20;;;0.20;;
56333;SDS011;42240;53.626;55.886;2023-03-14T10:09:47;0.30;;;0.30;;
56333;SDS011;42240;53.626;55.886;2023-03-14T10:11:22;0.20;;;0.20;;